createdAt,value
2018-05-31T00:02:19.384Z,11.71
2018-05-31T00:08:14.424Z,12.06
2018-05-31T00:14:09.371Z,12.83
2018-05-31T00:20:04.432Z,12.8
2018-05-31T00:25:59.390Z,13.31
2018-05-31T00:31:54.411Z,11.08
2018-05-31T00:37:49.447Z,10.46
2018-05-31T00:43:44.404Z,10.72
2018-05-31T00:49:39.493Z,9.76
2018-05-31T00:55:34.472Z,9.44
2018-05-31T01:01:29.443Z,9.8
2018-05-31T01:07:24.466Z,9.5
2018-05-31T01:13:19.493Z,9.24
2018-05-31T01:19:14.485Z,9.18
2018-05-31T01:25:09.466Z,8.55
2018-05-31T01:31:04.426Z,8.16
2018-05-31T01:36:59.459Z,9.24
2018-05-31T01:42:54.467Z,12.5
2018-05-31T01:48:49.455Z,12.7
2018-05-31T01:54:44.457Z,12
2018-05-31T02:00:39.455Z,13.53
2018-05-31T02:06:34.486Z,14.16
2018-05-31T02:12:29.469Z,13.62
2018-05-31T02:18:24.479Z,14.19
2018-05-31T02:24:19.489Z,12.43
2018-05-31T02:30:14.476Z,12.73
2018-05-31T02:36:09.503Z,11.77
2018-05-31T02:42:04.467Z,13.21
2018-05-31T02:47:59.524Z,14.81
2018-05-31T02:53:54.508Z,14.53
2018-05-31T02:59:49.451Z,15.79
2018-05-31T03:05:44.519Z,14.88
2018-05-31T03:11:39.556Z,15.71
2018-05-31T03:17:34.478Z,14.7
2018-05-31T03:23:29.506Z,14.18
2018-05-31T03:29:24.542Z,14.12
2018-05-31T03:35:19.577Z,14.82
2018-05-31T03:41:14.512Z,14.02
2018-05-31T03:47:09.533Z,13.76
2018-05-31T03:53:04.527Z,13.63
2018-05-31T03:58:59.561Z,14.05
2018-05-31T04:04:54.552Z,14.93
2018-05-31T04:10:49.532Z,13.63
2018-05-31T04:16:44.540Z,14.37
2018-05-31T04:22:39.537Z,14.34
2018-05-31T04:28:34.567Z,15.92
2018-05-31T04:34:29.559Z,18.61
2018-05-31T04:40:24.545Z,19.25
2018-05-31T04:46:19.575Z,18.95
2018-05-31T04:52:14.619Z,19.54
2018-05-31T04:58:09.564Z,18.48
2018-05-31T05:04:04.570Z,16.08
2018-05-31T05:09:59.575Z,15.18
2018-05-31T05:15:54.579Z,15.47
2018-05-31T05:21:49.580Z,15.61
2018-05-31T05:27:44.592Z,15.01
2018-05-31T05:39:34.597Z,15.27
2018-05-31T05:39:34.648Z,15.15
2018-05-31T05:45:29.576Z,16.46
2018-05-31T05:51:24.605Z,19.58
2018-05-31T05:57:19.635Z,16.68
2018-05-31T06:03:14.612Z,6.13
2018-05-31T06:09:09.628Z,23.64
2018-05-31T06:15:04.620Z,23.58
2018-05-31T06:20:59.645Z,23.89
2018-05-31T06:26:54.680Z,24.62
2018-05-31T06:32:49.685Z,24.91
2018-05-31T06:38:44.636Z,30.69
2018-05-31T06:44:39.676Z,27.25
2018-05-31T06:50:34.645Z,29.46
2018-05-31T06:56:29.648Z,25.17
2018-05-31T07:02:24.644Z,23.28
2018-05-31T07:08:19.660Z,36.52
2018-05-31T07:14:14.668Z,23.62
2018-05-31T07:26:04.668Z,21.51
2018-05-31T07:26:04.715Z,20.64
2018-05-31T07:31:59.695Z,21.03
2018-05-31T07:37:54.709Z,22.12
2018-05-31T07:43:49.652Z,20.4
2018-05-31T07:49:44.664Z,18.67
2018-05-31T07:55:39.712Z,21.16
2018-05-31T08:01:34.674Z,21.66
2018-05-31T08:07:29.692Z,24.28
2018-05-31T08:13:24.726Z,30.1
2018-05-31T08:19:19.748Z,23.45
2018-05-31T08:25:14.720Z,17.85
2018-05-31T08:31:09.741Z,19.29
2018-05-31T08:37:04.743Z,20.42
2018-05-31T08:42:59.747Z,18.57
2018-05-31T08:48:54.692Z,19.72
2018-05-31T08:54:49.765Z,18.93
2018-05-31T09:00:44.729Z,18.14
2018-05-31T09:06:39.754Z,16.83
2018-05-31T09:12:34.743Z,15.55
2018-05-31T09:18:29.729Z,15.78
2018-05-31T09:24:24.760Z,17.27
2018-05-31T09:30:19.804Z,17.33
2018-05-31T09:36:14.745Z,12.67
2018-05-31T09:42:09.784Z,11.5
2018-05-31T09:48:04.764Z,12.11
2018-05-31T09:53:59.835Z,10.98
2018-05-31T09:59:54.778Z,11.59
2018-05-31T10:05:49.793Z,10.63
2018-05-31T10:11:44.766Z,11.07
2018-05-31T10:17:39.764Z,10.16
2018-05-31T10:23:34.833Z,10.05
2018-05-31T10:29:29.832Z,10.43
2018-05-31T10:35:24.756Z,10
2018-05-31T10:41:19.836Z,9.52
2018-05-31T10:47:14.752Z,15.16
2018-05-31T10:53:09.806Z,9.23
2018-05-31T10:59:05.126Z,8.1
2018-05-31T11:04:59.779Z,9.44
2018-05-31T11:10:54.749Z,8.06
2018-05-31T11:16:49.826Z,9.07
2018-05-31T11:22:44.835Z,8.28
2018-05-31T11:28:39.843Z,8.1
2018-05-31T11:34:34.781Z,7.64
2018-05-31T11:40:29.865Z,8.33
2018-05-31T11:46:24.778Z,8.35
2018-05-31T11:52:19.785Z,7.28
2018-05-31T11:58:14.835Z,6.4
2018-05-31T12:04:09.788Z,6.63
2018-05-31T12:10:05.243Z,6.18
2018-05-31T12:15:59.831Z,6.19
2018-05-31T12:21:54.832Z,6.48
2018-05-31T12:27:49.803Z,6.24
2018-05-31T12:33:44.831Z,6.5
2018-05-31T12:39:39.828Z,6.1
2018-05-31T12:45:34.826Z,5.81
2018-05-31T12:51:29.804Z,5.86
2018-05-31T12:57:24.826Z,5.72
2018-05-31T13:03:19.805Z,4.96
2018-05-31T13:09:14.942Z,5.9
2018-05-31T13:15:10.049Z,5.66
2018-05-31T13:21:04.894Z,5.77
2018-05-31T13:26:59.894Z,5.82
2018-05-31T13:32:54.875Z,5.65
2018-05-31T13:38:49.845Z,5.66
2018-05-31T13:44:44.882Z,6.18
2018-05-31T13:50:39.833Z,5.93
2018-05-31T13:56:34.915Z,5.62
2018-05-31T14:02:29.843Z,4.55
2018-05-31T14:08:24.879Z,5.26
2018-05-31T14:14:19.877Z,5.01
2018-05-31T14:20:14.919Z,5.6
2018-05-31T14:26:09.902Z,6.08
2018-05-31T14:32:04.897Z,4.5
2018-05-31T14:37:59.928Z,4.84
2018-05-31T14:43:54.858Z,3.92
2018-05-31T14:49:49.885Z,5.2
2018-05-31T14:55:44.893Z,3.93
2018-05-31T15:01:39.880Z,4.65
2018-05-31T15:07:34.899Z,4.27
2018-05-31T15:13:29.962Z,4.9
2018-05-31T15:19:24.966Z,4.13
2018-05-31T15:25:19.894Z,4.76
2018-05-31T15:31:14.927Z,4.85
2018-05-31T15:37:09.935Z,3.9
2018-05-31T15:43:04.949Z,4.39
2018-05-31T15:48:59.944Z,4.36
2018-05-31T15:54:54.936Z,4.77
2018-05-31T16:00:49.965Z,5.17
2018-05-31T16:06:44.982Z,4.11
2018-05-31T16:12:39.926Z,4.03
2018-05-31T16:18:34.945Z,4.57
2018-05-31T16:24:29.941Z,5.72
2018-05-31T16:30:24.970Z,5.28
2018-05-31T16:36:20.002Z,5.4
2018-05-31T16:42:14.951Z,4.99
2018-05-31T16:48:10.052Z,5.32
2018-05-31T16:54:04.969Z,4.84
2018-05-31T16:59:59.985Z,4.81
2018-05-31T17:05:55.040Z,4.89
2018-05-31T17:11:49.963Z,4.59
2018-05-31T17:17:45.036Z,4.11
2018-05-31T17:23:39.990Z,4.05
2018-05-31T17:29:34.992Z,3.85
2018-05-31T17:35:29.992Z,4.1
2018-05-31T17:41:24.987Z,4.74
2018-05-31T17:47:19.988Z,4.12
2018-05-31T17:53:15.010Z,3.86
2018-05-31T17:59:09.969Z,4.26
2018-05-31T18:05:05.011Z,4.17
2018-05-31T18:10:59.999Z,3.96
2018-05-31T18:16:55.053Z,4.06
2018-05-31T18:22:50.012Z,4.03
2018-05-31T18:28:45.020Z,5.04
2018-05-31T18:34:40.072Z,6.33
2018-05-31T18:40:35.090Z,4.63
2018-05-31T18:46:30.014Z,4.95
2018-05-31T18:52:25.018Z,4.84
2018-05-31T18:58:20.050Z,7.29
2018-05-31T19:04:15.037Z,5.53
2018-05-31T19:10:10.047Z,5.29
2018-05-31T19:16:05.057Z,6.37
2018-05-31T19:22:00.090Z,5.43
2018-05-31T19:27:55.053Z,6.56
2018-05-31T19:33:50.082Z,6.81
2018-05-31T19:39:45.127Z,5.87
2018-05-31T19:45:40.048Z,6.5
2018-05-31T19:51:35.064Z,6.57
2018-05-31T19:57:30.093Z,7.07
2018-05-31T20:03:25.066Z,13.06
2018-05-31T20:09:20.133Z,8.98
2018-05-31T20:15:15.065Z,10.48
2018-05-31T20:21:10.119Z,8.78
2018-05-31T20:27:05.104Z,10.73
2018-05-31T20:33:00.100Z,8.98
2018-05-31T20:38:55.137Z,9.28
2018-05-31T20:44:50.130Z,10
2018-05-31T20:50:45.154Z,8.88
2018-05-31T20:56:40.109Z,9.77
2018-05-31T21:02:35.087Z,10.04
2018-05-31T21:08:30.119Z,9.64
2018-05-31T21:14:25.160Z,9.5
2018-05-31T21:20:20.157Z,8.93
2018-05-31T21:26:15.104Z,9.48
2018-05-31T21:32:10.136Z,10.03
2018-05-31T21:38:05.102Z,9.65
2018-05-31T21:44:00.193Z,9.63
2018-05-31T21:49:55.226Z,9.44
2018-05-31T21:55:50.140Z,9.32
2018-05-31T22:01:45.211Z,9.02
2018-05-31T22:07:40.138Z,10.58
2018-05-31T22:13:35.160Z,10.75
2018-05-31T22:19:30.200Z,9.64
2018-05-31T22:25:25.152Z,9.57
2018-05-31T22:31:20.130Z,9.16
2018-05-31T22:37:15.183Z,10.06
2018-05-31T22:43:10.169Z,9.3
2018-05-31T22:49:05.160Z,9.3
2018-05-31T22:55:00.232Z,9.69
2018-05-31T23:00:55.219Z,9.41
2018-05-31T23:06:50.182Z,9.3
2018-05-31T23:12:45.232Z,9.63
2018-05-31T23:18:40.198Z,8.96
2018-05-31T23:24:35.176Z,9.45
2018-05-31T23:30:30.213Z,9.27
2018-05-31T23:36:25.256Z,9.8
2018-05-31T23:42:20.188Z,9.3
2018-05-31T23:48:15.223Z,10.71
2018-05-31T23:54:10.208Z,8.94
